sensor_id;sensor_type;location;lat;lon;timestamp;P1;durP1;ratioP1;P2;durP2;ratioP2
64244;SDS011;50584;29.058;-110.966;2023-01-16T00:00:46;3.95;;;1.15;;
64244;SDS011;50584;29.058;-110.966;2023-01-16T00:03:12;1.00;;;1.00;;
64244;SDS011;50584;29.058;-110.966;2023-01-16T00:05:37;2.00;;;0.90;;
64244;SDS011;50584;29.058;-110.966;2023-01-16T00:08:03;7.90;;;0.90;;
64244;SDS011;50584;29.058;-110.966;2023-01-16T00:10:29;15.30;;;1.58;;
64244;SDS011;50584;29.058;-110.966;2023-01-16T00:12:55;3.33;;;1.13;;
64244;SDS011;50584;29.058;-110.966;2023-01-16T00:15:21;1.60;;;1.17;;
64244;SDS011;50584;29.058;-110.966;2023-01-16T00:17:46;1.17;;;1.05;;
64244;SDS011;50584;29.058;-110.966;2023-01-16T00:20:13;7.68;;;1.48;;
64244;SDS011;50584;29.058;-110.966;2023-01-16T00:22:39;1.45;;;1.20;;
64244;SDS011;50584;29.058;-110.966;2023-01-16T00:25:05;5.82;;;1.00;;
64244;SDS011;50584;29.058;-110.966;2023-01-16T00:27:31;4.05;;;0.80;;
64244;SDS011;50584;29.058;-110.966;2023-01-16T00:29:57;1.75;;;1.13;;
64244;SDS011;50584;29.058;-110.966;2023-01-16T00:32:22;1.10;;;1.10;;
64244;SDS011;50584;29.058;-110.966;2023-01-16T00:34:48;5.72;;;1.20;;
64244;SDS011;50584;29.058;-110.966;2023-01-16T00:37:14;2.45;;;2.13;;
64244;SDS011;50584;29.058;-110.966;2023-01-16T00:39:40;2.40;;;1.50;;
64244;SDS011;50584;29.058;-110.966;2023-01-16T00:42:06;6.13;;;1.20;;
64244;SDS011;50584;29.058;-110.966;2023-01-16T00:44:32;3.08;;;1.27;;
64244;SDS011;50584;29.058;-110.966;2023-01-16T00:46:58;4.03;;;1.40;;
64244;SDS011;50584;29.058;-110.966;2023-01-16T00:49:24;1.50;;;1.40;;
64244;SDS011;50584;29.058;-110.966;2023-01-16T00:51:50;5.85;;;1.65;;
64244;SDS011;50584;29.058;-110.966;2023-01-16T00:54:15;9.07;;;1.70;;
64244;SDS011;50584;29.058;-110.966;2023-01-16T00:56:41;8.32;;;2.63;;
64244;SDS011;50584;29.058;-110.966;2023-01-16T00:59:07;8.68;;;3.00;;
64244;SDS011;50584;29.058;-110.966;2023-01-16T01:01:33;8.75;;;2.65;;
64244;SDS011;50584;29.058;-110.966;2023-01-16T01:03:59;7.07;;;1.88;;
64244;SDS011;50584;29.058;-110.966;2023-01-16T01:06:25;3.65;;;1.73;;
64244;SDS011;50584;29.058;-110.966;2023-01-16T01:08:50;6.97;;;1.83;;
64244;SDS011;50584;29.058;-110.966;2023-01-16T01:11:16;8.82;;;2.08;;
64244;SDS011;50584;29.058;-110.966;2023-01-16T01:13:42;10.00;;;2.90;;
64244;SDS011;50584;29.058;-110.966;2023-01-16T01:16:08;9.98;;;2.40;;
64244;SDS011;50584;29.058;-110.966;2023-01-16T01:18:34;6.88;;;2.40;;
64244;SDS011;50584;29.058;-110.966;2023-01-16T01:21:00;4.35;;;2.22;;
64244;SDS011;50584;29.058;-110.966;2023-01-16T01:23:26;7.68;;;2.10;;
64244;SDS011;50584;29.058;-110.966;2023-01-16T01:25:52;8.93;;;2.97;;
64244;SDS011;50584;29.058;-110.966;2023-01-16T01:28:18;4.68;;;2.45;;
64244;SDS011;50584;29.058;-110.966;2023-01-16T01:30:44;12.80;;;3.40;;
64244;SDS011;50584;29.058;-110.966;2023-01-16T01:33:10;11.88;;;2.50;;
64244;SDS011;50584;29.058;-110.966;2023-01-16T01:35:36;3.40;;;2.13;;
64244;SDS011;50584;29.058;-110.966;2023-01-16T01:38:02;9.63;;;2.67;;
64244;SDS011;50584;29.058;-110.966;2023-01-16T01:40:28;3.47;;;1.98;;
64244;SDS011;50584;29.058;-110.966;2023-01-16T01:42:53;6.30;;;3.70;;
64244;SDS011;50584;29.058;-110.966;2023-01-16T01:45:27;4.93;;;1.90;;
64244;SDS011;50584;29.058;-110.966;2023-01-16T01:47:54;4.60;;;1.63;;
64244;SDS011;50584;29.058;-110.966;2023-01-16T01:52:54;3.95;;;2.15;;
64244;SDS011;50584;29.058;-110.966;2023-01-16T01:55:23;5.60;;;1.95;;
64244;SDS011;50584;29.058;-110.966;2023-01-16T01:57:49;4.07;;;1.63;;
64244;SDS011;50584;29.058;-110.966;2023-01-16T02:00:18;4.75;;;1.63;;
64244;SDS011;50584;29.058;-110.966;2023-01-16T02:02:51;4.65;;;1.90;;
64244;SDS011;50584;29.058;-110.966;2023-01-16T02:05:24;6.60;;;2.13;;
64244;SDS011;50584;29.058;-110.966;2023-01-16T02:07:53;6.13;;;2.28;;
64244;SDS011;50584;29.058;-110.966;2023-01-16T02:10:38;3.50;;;1.83;;
64244;SDS011;50584;29.058;-110.966;2023-01-16T02:13:05;6.18;;;2.00;;
64244;SDS011;50584;29.058;-110.966;2023-01-16T02:15:31;7.63;;;1.65;;
64244;SDS011;50584;29.058;-110.966;2023-01-16T02:17:56;2.03;;;1.63;;
64244;SDS011;50584;29.058;-110.966;2023-01-16T02:23:24;6.35;;;1.50;;
64244;SDS011;50584;29.058;-110.966;2023-01-16T02:34:06;5.90;;;1.58;;
64244;SDS011;50584;29.058;-110.966;2023-01-16T02:36:46;3.53;;;2.58;;
64244;SDS011;50584;29.058;-110.966;2023-01-16T02:41:46;10.85;;;2.25;;
64244;SDS011;50584;29.058;-110.966;2023-01-16T02:46:58;63.95;;;17.98;;
64244;SDS011;50584;29.058;-110.966;2023-01-16T02:49:30;31.85;;;7.50;;
64244;SDS011;50584;29.058;-110.966;2023-01-16T02:54:38;109.03;;;31.33;;
64244;SDS011;50584;29.058;-110.966;2023-01-16T02:57:14;23.83;;;8.55;;
64244;SDS011;50584;29.058;-110.966;2023-01-16T02:59:41;19.65;;;5.60;;
64244;SDS011;50584;29.058;-110.966;2023-01-16T03:02:08;6.65;;;2.88;;
64244;SDS011;50584;29.058;-110.966;2023-01-16T03:12:38;11.20;;;5.85;;
64244;SDS011;50584;29.058;-110.966;2023-01-16T03:18:01;10.90;;;6.10;;
64244;SDS011;50584;29.058;-110.966;2023-01-16T03:22:50;14.70;;;8.88;;
64244;SDS011;50584;29.058;-110.966;2023-01-16T03:28:07;13.60;;;6.75;;
64244;SDS011;50584;29.058;-110.966;2023-01-16T03:30:38;23.48;;;12.57;;
64244;SDS011;50584;29.058;-110.966;2023-01-16T03:33:15;23.70;;;11.20;;
64244;SDS011;50584;29.058;-110.966;2023-01-16T03:35:49;56.20;;;25.38;;
64244;SDS011;50584;29.058;-110.966;2023-01-16T03:38:17;15.60;;;8.65;;
64244;SDS011;50584;29.058;-110.966;2023-01-16T03:40:45;13.80;;;4.40;;
64244;SDS011;50584;29.058;-110.966;2023-01-16T03:50:38;5.07;;;3.53;;
64244;SDS011;50584;29.058;-110.966;2023-01-16T03:53:08;25.80;;;13.27;;
64244;SDS011;50584;29.058;-110.966;2023-01-16T03:56:37;39.25;;;19.23;;
64244;SDS011;50584;29.058;-110.966;2023-01-16T03:58:32;19.35;;;9.13;;
64244;SDS011;50584;29.058;-110.966;2023-01-16T04:03:36;12.25;;;6.90;;
64244;SDS011;50584;29.058;-110.966;2023-01-16T04:06:04;9.38;;;4.47;;
64244;SDS011;50584;29.058;-110.966;2023-01-16T04:08:33;19.40;;;7.25;;
64244;SDS011;50584;29.058;-110.966;2023-01-16T04:11:00;16.75;;;6.38;;
64244;SDS011;50584;29.058;-110.966;2023-01-16T04:13:27;8.40;;;5.20;;
64244;SDS011;50584;29.058;-110.966;2023-01-16T04:15:56;30.98;;;7.68;;
64244;SDS011;50584;29.058;-110.966;2023-01-16T04:18:24;8.25;;;2.60;;
64244;SDS011;50584;29.058;-110.966;2023-01-16T04:20:51;2.08;;;1.80;;
64244;SDS011;50584;29.058;-110.966;2023-01-16T04:23:17;4.07;;;1.85;;
64244;SDS011;50584;29.058;-110.966;2023-01-16T04:25:44;6.20;;;3.00;;
64244;SDS011;50584;29.058;-110.966;2023-01-16T04:28:10;7.13;;;2.10;;
64244;SDS011;50584;29.058;-110.966;2023-01-16T04:30:36;3.30;;;3.00;;
64244;SDS011;50584;29.058;-110.966;2023-01-16T04:33:05;20.88;;;8.48;;
64244;SDS011;50584;29.058;-110.966;2023-01-16T04:35:31;17.33;;;6.95;;
64244;SDS011;50584;29.058;-110.966;2023-01-16T04:37:57;12.63;;;6.93;;
64244;SDS011;50584;29.058;-110.966;2023-01-16T04:40:23;15.60;;;5.57;;
64244;SDS011;50584;29.058;-110.966;2023-01-16T04:42:49;6.47;;;4.60;;
64244;SDS011;50584;29.058;-110.966;2023-01-16T04:45:15;3.80;;;3.13;;
64244;SDS011;50584;29.058;-110.966;2023-01-16T04:47:44;8.57;;;2.90;;
64244;SDS011;50584;29.058;-110.966;2023-01-16T04:50:10;17.23;;;7.05;;
64244;SDS011;50584;29.058;-110.966;2023-01-16T04:52:36;8.45;;;5.25;;
64244;SDS011;50584;29.058;-110.966;2023-01-16T04:55:01;15.75;;;3.88;;
64244;SDS011;50584;29.058;-110.966;2023-01-16T04:57:27;9.52;;;6.20;;
64244;SDS011;50584;29.058;-110.966;2023-01-16T04:59:53;17.80;;;7.57;;
64244;SDS011;50584;29.058;-110.966;2023-01-16T05:02:19;8.57;;;2.83;;
64244;SDS011;50584;29.058;-110.966;2023-01-16T05:04:45;4.10;;;2.83;;
64244;SDS011;50584;29.058;-110.966;2023-01-16T05:07:11;8.90;;;5.93;;
64244;SDS011;50584;29.058;-110.966;2023-01-16T05:09:36;9.93;;;5.85;;
64244;SDS011;50584;29.058;-110.966;2023-01-16T05:12:02;10.02;;;5.22;;
64244;SDS011;50584;29.058;-110.966;2023-01-16T05:14:28;4.72;;;3.20;;
64244;SDS011;50584;29.058;-110.966;2023-01-16T05:16:54;6.00;;;2.85;;
64244;SDS011;50584;29.058;-110.966;2023-01-16T05:19:20;7.47;;;4.10;;
64244;SDS011;50584;29.058;-110.966;2023-01-16T05:21:48;9.43;;;3.33;;
64244;SDS011;50584;29.058;-110.966;2023-01-16T05:24:14;15.05;;;3.97;;
64244;SDS011;50584;29.058;-110.966;2023-01-16T05:26:40;15.45;;;3.33;;
64244;SDS011;50584;29.058;-110.966;2023-01-16T05:29:06;11.32;;;3.88;;
64244;SDS011;50584;29.058;-110.966;2023-01-16T05:31:32;18.85;;;4.00;;
64244;SDS011;50584;29.058;-110.966;2023-01-16T05:33:58;12.90;;;4.00;;
64244;SDS011;50584;29.058;-110.966;2023-01-16T05:36:24;20.63;;;3.60;;
64244;SDS011;50584;29.058;-110.966;2023-01-16T05:38:50;11.48;;;4.95;;
64244;SDS011;50584;29.058;-110.966;2023-01-16T05:41:16;13.00;;;4.25;;
64244;SDS011;50584;29.058;-110.966;2023-01-16T05:43:42;12.05;;;4.43;;
64244;SDS011;50584;29.058;-110.966;2023-01-16T05:46:08;15.20;;;3.20;;
64244;SDS011;50584;29.058;-110.966;2023-01-16T05:48:34;11.55;;;3.53;;
64244;SDS011;50584;29.058;-110.966;2023-01-16T05:51:02;13.55;;;3.50;;
64244;SDS011;50584;29.058;-110.966;2023-01-16T05:53:28;12.80;;;4.32;;
64244;SDS011;50584;29.058;-110.966;2023-01-16T05:55:56;9.63;;;2.88;;
64244;SDS011;50584;29.058;-110.966;2023-01-16T05:58:22;5.05;;;3.08;;
64244;SDS011;50584;29.058;-110.966;2023-01-16T06:00:48;9.77;;;2.47;;
64244;SDS011;50584;29.058;-110.966;2023-01-16T06:03:14;4.28;;;2.35;;
64244;SDS011;50584;29.058;-110.966;2023-01-16T06:05:42;5.55;;;2.42;;
64244;SDS011;50584;29.058;-110.966;2023-01-16T06:08:08;5.38;;;2.80;;
64244;SDS011;50584;29.058;-110.966;2023-01-16T06:10:34;4.20;;;2.60;;
64244;SDS011;50584;29.058;-110.966;2023-01-16T06:13:01;7.05;;;2.20;;
64244;SDS011;50584;29.058;-110.966;2023-01-16T06:15:27;4.95;;;2.92;;
64244;SDS011;50584;29.058;-110.966;2023-01-16T06:17:53;10.32;;;3.00;;
64244;SDS011;50584;29.058;-110.966;2023-01-16T06:20:20;3.28;;;2.92;;
64244;SDS011;50584;29.058;-110.966;2023-01-16T06:22:46;7.30;;;3.60;;
64244;SDS011;50584;29.058;-110.966;2023-01-16T06:25:12;8.63;;;2.38;;
64244;SDS011;50584;29.058;-110.966;2023-01-16T06:27:38;5.45;;;2.28;;
64244;SDS011;50584;29.058;-110.966;2023-01-16T06:30:04;3.70;;;1.88;;
64244;SDS011;50584;29.058;-110.966;2023-01-16T06:32:31;3.30;;;2.20;;
64244;SDS011;50584;29.058;-110.966;2023-01-16T06:34:57;4.85;;;1.98;;
64244;SDS011;50584;29.058;-110.966;2023-01-16T06:37:23;4.63;;;3.15;;
64244;SDS011;50584;29.058;-110.966;2023-01-16T06:39:48;8.20;;;2.25;;
64244;SDS011;50584;29.058;-110.966;2023-01-16T06:42:14;8.35;;;3.03;;
64244;SDS011;50584;29.058;-110.966;2023-01-16T06:44:40;12.35;;;2.97;;
64244;SDS011;50584;29.058;-110.966;2023-01-16T06:47:06;9.82;;;2.92;;
64244;SDS011;50584;29.058;-110.966;2023-01-16T06:49:33;8.27;;;2.63;;
64244;SDS011;50584;29.058;-110.966;2023-01-16T06:51:59;7.70;;;2.63;;
64244;SDS011;50584;29.058;-110.966;2023-01-16T06:54:25;10.13;;;3.10;;
64244;SDS011;50584;29.058;-110.966;2023-01-16T06:56:51;2.88;;;2.53;;
64244;SDS011;50584;29.058;-110.966;2023-01-16T06:59:17;6.40;;;2.38;;
64244;SDS011;50584;29.058;-110.966;2023-01-16T07:01:43;11.57;;;2.00;;
64244;SDS011;50584;29.058;-110.966;2023-01-16T07:04:08;6.88;;;2.45;;
64244;SDS011;50584;29.058;-110.966;2023-01-16T07:06:35;5.65;;;2.20;;
64244;SDS011;50584;29.058;-110.966;2023-01-16T07:09:01;4.35;;;2.47;;
64244;SDS011;50584;29.058;-110.966;2023-01-16T07:11:27;7.05;;;2.17;;
64244;SDS011;50584;29.058;-110.966;2023-01-16T07:13:53;3.53;;;2.10;;
64244;SDS011;50584;29.058;-110.966;2023-01-16T07:16:39;8.35;;;2.45;;
64244;SDS011;50584;29.058;-110.966;2023-01-16T07:19:23;4.05;;;2.38;;
64244;SDS011;50584;29.058;-110.966;2023-01-16T07:22:08;2.13;;;1.92;;
64244;SDS011;50584;29.058;-110.966;2023-01-16T07:24:54;2.45;;;1.92;;
64244;SDS011;50584;29.058;-110.966;2023-01-16T07:27:20;5.32;;;2.10;;
64244;SDS011;50584;29.058;-110.966;2023-01-16T07:29:45;5.50;;;1.90;;
64244;SDS011;50584;29.058;-110.966;2023-01-16T07:32:11;4.13;;;2.00;;
64244;SDS011;50584;29.058;-110.966;2023-01-16T07:34:37;5.78;;;1.80;;
64244;SDS011;50584;29.058;-110.966;2023-01-16T07:37:03;5.45;;;1.70;;
64244;SDS011;50584;29.058;-110.966;2023-01-16T07:39:28;1.83;;;1.73;;
64244;SDS011;50584;29.058;-110.966;2023-01-16T07:41:54;3.38;;;1.95;;
64244;SDS011;50584;29.058;-110.966;2023-01-16T07:44:20;3.85;;;2.03;;
64244;SDS011;50584;29.058;-110.966;2023-01-16T07:46:46;4.70;;;2.10;;
64244;SDS011;50584;29.058;-110.966;2023-01-16T07:49:12;7.18;;;2.20;;
64244;SDS011;50584;29.058;-110.966;2023-01-16T07:51:37;2.38;;;1.80;;
64244;SDS011;50584;29.058;-110.966;2023-01-16T07:54:05;5.72;;;1.90;;
64244;SDS011;50584;29.058;-110.966;2023-01-16T07:56:30;5.30;;;2.28;;
64244;SDS011;50584;29.058;-110.966;2023-01-16T07:58:56;8.30;;;2.03;;
64244;SDS011;50584;29.058;-110.966;2023-01-16T08:01:22;10.60;;;2.00;;
64244;SDS011;50584;29.058;-110.966;2023-01-16T08:03:48;1.85;;;1.58;;
64244;SDS011;50584;29.058;-110.966;2023-01-16T08:06:14;4.32;;;2.00;;
64244;SDS011;50584;29.058;-110.966;2023-01-16T08:08:40;7.55;;;2.03;;
64244;SDS011;50584;29.058;-110.966;2023-01-16T08:11:05;1.90;;;1.80;;
64244;SDS011;50584;29.058;-110.966;2023-01-16T08:13:49;2.95;;;1.92;;
64244;SDS011;50584;29.058;-110.966;2023-01-16T08:16:15;2.83;;;1.92;;
64244;SDS011;50584;29.058;-110.966;2023-01-16T08:18:41;6.18;;;3.20;;
64244;SDS011;50584;29.058;-110.966;2023-01-16T08:21:07;2.08;;;1.98;;
64244;SDS011;50584;29.058;-110.966;2023-01-16T08:23:33;3.58;;;1.90;;
64244;SDS011;50584;29.058;-110.966;2023-01-16T08:25:58;3.08;;;2.00;;
64244;SDS011;50584;29.058;-110.966;2023-01-16T08:28:25;2.38;;;2.10;;
64244;SDS011;50584;29.058;-110.966;2023-01-16T08:30:51;4.72;;;2.50;;
64244;SDS011;50584;29.058;-110.966;2023-01-16T08:33:17;4.65;;;2.50;;
64244;SDS011;50584;29.058;-110.966;2023-01-16T08:35:43;2.20;;;2.00;;
64244;SDS011;50584;29.058;-110.966;2023-01-16T08:38:08;2.80;;;2.00;;
64244;SDS011;50584;29.058;-110.966;2023-01-16T08:40:34;2.90;;;2.00;;
64244;SDS011;50584;29.058;-110.966;2023-01-16T08:43:00;5.50;;;2.15;;
64244;SDS011;50584;29.058;-110.966;2023-01-16T08:45:44;6.07;;;1.80;;
64244;SDS011;50584;29.058;-110.966;2023-01-16T08:48:28;3.08;;;1.98;;
64244;SDS011;50584;29.058;-110.966;2023-01-16T08:51:15;4.25;;;2.30;;
64244;SDS011;50584;29.058;-110.966;2023-01-16T08:53:47;3.67;;;2.20;;
64244;SDS011;50584;29.058;-110.966;2023-01-16T08:56:13;8.70;;;2.60;;
64244;SDS011;50584;29.058;-110.966;2023-01-16T08:58:39;4.28;;;2.22;;
64244;SDS011;50584;29.058;-110.966;2023-01-16T09:01:05;12.45;;;2.55;;
64244;SDS011;50584;29.058;-110.966;2023-01-16T09:03:31;6.38;;;2.13;;
64244;SDS011;50584;29.058;-110.966;2023-01-16T09:05:58;2.22;;;2.05;;
64244;SDS011;50584;29.058;-110.966;2023-01-16T09:08:24;3.22;;;1.90;;
64244;SDS011;50584;29.058;-110.966;2023-01-16T09:10:50;2.25;;;2.05;;
64244;SDS011;50584;29.058;-110.966;2023-01-16T09:13:34;3.25;;;2.50;;
64244;SDS011;50584;29.058;-110.966;2023-01-16T09:16:16;3.42;;;2.33;;
64244;SDS011;50584;29.058;-110.966;2023-01-16T09:18:42;8.60;;;2.65;;
64244;SDS011;50584;29.058;-110.966;2023-01-16T09:21:07;7.18;;;2.90;;
64244;SDS011;50584;29.058;-110.966;2023-01-16T09:23:33;5.93;;;2.40;;
64244;SDS011;50584;29.058;-110.966;2023-01-16T09:25:59;5.93;;;2.63;;
64244;SDS011;50584;29.058;-110.966;2023-01-16T09:28:25;2.40;;;2.10;;
64244;SDS011;50584;29.058;-110.966;2023-01-16T09:30:51;4.45;;;3.08;;
64244;SDS011;50584;29.058;-110.966;2023-01-16T09:33:17;2.15;;;2.05;;
64244;SDS011;50584;29.058;-110.966;2023-01-16T09:35:42;5.28;;;2.30;;
64244;SDS011;50584;29.058;-110.966;2023-01-16T09:38:08;5.18;;;2.15;;
64244;SDS011;50584;29.058;-110.966;2023-01-16T09:40:34;2.22;;;2.03;;
64244;SDS011;50584;29.058;-110.966;2023-01-16T09:45:47;3.15;;;2.13;;
64244;SDS011;50584;29.058;-110.966;2023-01-16T09:48:33;4.28;;;2.10;;
64244;SDS011;50584;29.058;-110.966;2023-01-16T09:51:04;3.78;;;2.30;;
64244;SDS011;50584;29.058;-110.966;2023-01-16T09:56:40;3.47;;;1.88;;
64244;SDS011;50584;29.058;-110.966;2023-01-16T10:01:42;2.40;;;2.20;;
64244;SDS011;50584;29.058;-110.966;2023-01-16T10:04:14;2.20;;;2.00;;
64244;SDS011;50584;29.058;-110.966;2023-01-16T10:06:46;2.50;;;2.20;;
64244;SDS011;50584;29.058;-110.966;2023-01-16T10:12:01;3.83;;;2.00;;
64244;SDS011;50584;29.058;-110.966;2023-01-16T10:17:12;2.58;;;1.90;;
64244;SDS011;50584;29.058;-110.966;2023-01-16T10:27:19;4.40;;;3.55;;
64244;SDS011;50584;29.058;-110.966;2023-01-16T10:37:31;4.45;;;2.60;;
64244;SDS011;50584;29.058;-110.966;2023-01-16T10:39:58;4.63;;;2.72;;
64244;SDS011;50584;29.058;-110.966;2023-01-16T10:42:31;6.53;;;2.83;;
64244;SDS011;50584;29.058;-110.966;2023-01-16T10:48:01;7.75;;;2.80;;
64244;SDS011;50584;29.058;-110.966;2023-01-16T10:50:45;3.25;;;2.97;;
64244;SDS011;50584;29.058;-110.966;2023-01-16T10:53:12;4.03;;;2.83;;
64244;SDS011;50584;29.058;-110.966;2023-01-16T10:55:39;3.75;;;3.25;;
64244;SDS011;50584;29.058;-110.966;2023-01-16T10:58:06;4.22;;;3.15;;
64244;SDS011;50584;29.058;-110.966;2023-01-16T11:03:10;4.05;;;2.85;;
64244;SDS011;50584;29.058;-110.966;2023-01-16T11:05:39;3.65;;;3.20;;
64244;SDS011;50584;29.058;-110.966;2023-01-16T11:08:09;5.75;;;3.15;;
64244;SDS011;50584;29.058;-110.966;2023-01-16T11:10:35;5.32;;;3.08;;
64244;SDS011;50584;29.058;-110.966;2023-01-16T11:13:01;10.68;;;3.38;;
64244;SDS011;50584;29.058;-110.966;2023-01-16T11:18:53;10.85;;;3.20;;
64244;SDS011;50584;29.058;-110.966;2023-01-16T11:23:47;4.53;;;3.08;;
64244;SDS011;50584;29.058;-110.966;2023-01-16T11:26:14;5.80;;;3.50;;
64244;SDS011;50584;29.058;-110.966;2023-01-16T11:28:41;4.97;;;3.65;;
64244;SDS011;50584;29.058;-110.966;2023-01-16T11:31:12;6.28;;;2.90;;
64244;SDS011;50584;29.058;-110.966;2023-01-16T11:33:40;9.82;;;3.30;;
64244;SDS011;50584;29.058;-110.966;2023-01-16T11:36:08;8.70;;;3.40;;
64244;SDS011;50584;29.058;-110.966;2023-01-16T11:38:35;8.52;;;3.80;;
64244;SDS011;50584;29.058;-110.966;2023-01-16T11:41:03;14.00;;;3.90;;
64244;SDS011;50584;29.058;-110.966;2023-01-16T11:43:31;8.65;;;3.45;;
64244;SDS011;50584;29.058;-110.966;2023-01-16T11:48:49;11.32;;;3.83;;
64244;SDS011;50584;29.058;-110.966;2023-01-16T11:51:18;5.30;;;3.50;;
64244;SDS011;50584;29.058;-110.966;2023-01-16T11:53:46;6.22;;;3.08;;
64244;SDS011;50584;29.058;-110.966;2023-01-16T12:05:05;11.43;;;3.72;;
64244;SDS011;50584;29.058;-110.966;2023-01-16T12:07:50;6.50;;;3.58;;
64244;SDS011;50584;29.058;-110.966;2023-01-16T12:10:23;7.93;;;4.30;;
64244;SDS011;50584;29.058;-110.966;2023-01-16T12:13:01;5.63;;;4.22;;
64244;SDS011;50584;29.058;-110.966;2023-01-16T12:15:53;9.32;;;3.55;;
64244;SDS011;50584;29.058;-110.966;2023-01-16T12:18:34;8.02;;;4.15;;
64244;SDS011;50584;29.058;-110.966;2023-01-16T12:21:01;4.50;;;3.80;;
64244;SDS011;50584;29.058;-110.966;2023-01-16T12:26:06;7.07;;;4.30;;
64244;SDS011;50584;29.058;-110.966;2023-01-16T12:45:02;9.35;;;3.22;;
64244;SDS011;50584;29.058;-110.966;2023-01-16T12:47:53;7.25;;;4.10;;
64244;SDS011;50584;29.058;-110.966;2023-01-16T12:53:17;7.50;;;3.67;;
64244;SDS011;50584;29.058;-110.966;2023-01-16T12:58:32;5.68;;;3.58;;
64244;SDS011;50584;29.058;-110.966;2023-01-16T13:03:30;3.60;;;3.25;;
64244;SDS011;50584;29.058;-110.966;2023-01-16T13:06:01;5.15;;;3.55;;
64244;SDS011;50584;29.058;-110.966;2023-01-16T13:08:33;11.07;;;4.10;;
64244;SDS011;50584;29.058;-110.966;2023-01-16T13:13:48;5.43;;;3.35;;
64244;SDS011;50584;29.058;-110.966;2023-01-16T13:16:32;7.95;;;4.00;;
64244;SDS011;50584;29.058;-110.966;2023-01-16T13:19:40;5.38;;;4.35;;
64244;SDS011;50584;29.058;-110.966;2023-01-16T13:24:24;9.70;;;4.88;;
64244;SDS011;50584;29.058;-110.966;2023-01-16T13:26:53;6.85;;;4.00;;
64244;SDS011;50584;29.058;-110.966;2023-01-16T13:31:54;5.07;;;3.97;;
64244;SDS011;50584;29.058;-110.966;2023-01-16T13:34:23;27.13;;;4.65;;
64244;SDS011;50584;29.058;-110.966;2023-01-16T13:42:01;53.00;;;19.70;;
64244;SDS011;50584;29.058;-110.966;2023-01-16T13:44:33;168.90;;;66.60;;
64244;SDS011;50584;29.058;-110.966;2023-01-16T13:47:23;155.60;;;63.20;;
64244;SDS011;50584;29.058;-110.966;2023-01-16T13:49:55;155.98;;;63.65;;
64244;SDS011;50584;29.058;-110.966;2023-01-16T13:54:47;43.22;;;17.13;;
64244;SDS011;50584;29.058;-110.966;2023-01-16T13:57:18;127.82;;;46.58;;
64244;SDS011;50584;29.058;-110.966;2023-01-16T13:59:51;29.63;;;13.02;;
64244;SDS011;50584;29.058;-110.966;2023-01-16T14:10:44;12.57;;;5.90;;
64244;SDS011;50584;29.058;-110.966;2023-01-16T14:15:53;12.10;;;6.35;;
64244;SDS011;50584;29.058;-110.966;2023-01-16T14:21:03;52.88;;;22.05;;
64244;SDS011;50584;29.058;-110.966;2023-01-16T14:23:30;33.67;;;10.98;;
64244;SDS011;50584;29.058;-110.966;2023-01-16T14:26:19;29.50;;;14.75;;
64244;SDS011;50584;29.058;-110.966;2023-01-16T14:28:48;21.35;;;10.98;;
64244;SDS011;50584;29.058;-110.966;2023-01-16T14:34:00;32.70;;;12.15;;
64244;SDS011;50584;29.058;-110.966;2023-01-16T14:36:27;32.33;;;11.60;;
64244;SDS011;50584;29.058;-110.966;2023-01-16T14:38:53;22.73;;;11.85;;
64244;SDS011;50584;29.058;-110.966;2023-01-16T14:41:23;18.85;;;8.68;;
64244;SDS011;50584;29.058;-110.966;2023-01-16T14:44:21;7.63;;;4.43;;
64244;SDS011;50584;29.058;-110.966;2023-01-16T14:47:10;8.30;;;5.03;;
64244;SDS011;50584;29.058;-110.966;2023-01-16T14:50:08;20.77;;;6.72;;
64244;SDS011;50584;29.058;-110.966;2023-01-16T14:52:57;22.95;;;6.25;;
64244;SDS011;50584;29.058;-110.966;2023-01-16T14:55:46;19.73;;;5.53;;
64244;SDS011;50584;29.058;-110.966;2023-01-16T14:58:16;13.82;;;4.60;;
64244;SDS011;50584;29.058;-110.966;2023-01-16T15:03:14;11.13;;;4.05;;
64244;SDS011;50584;29.058;-110.966;2023-01-16T15:05:46;10.48;;;4.72;;
64244;SDS011;50584;29.058;-110.966;2023-01-16T15:08:17;14.35;;;4.20;;
64244;SDS011;50584;29.058;-110.966;2023-01-16T15:10:46;9.30;;;4.22;;
64244;SDS011;50584;29.058;-110.966;2023-01-16T15:15:40;12.40;;;4.13;;
64244;SDS011;50584;29.058;-110.966;2023-01-16T15:18:09;10.30;;;4.00;;
64244;SDS011;50584;29.058;-110.966;2023-01-16T15:20:56;18.48;;;3.92;;
64244;SDS011;50584;29.058;-110.966;2023-01-16T15:23:41;7.50;;;3.75;;
64244;SDS011;50584;29.058;-110.966;2023-01-16T15:31:42;13.52;;;3.47;;
64244;SDS011;50584;29.058;-110.966;2023-01-16T15:36:39;11.30;;;3.50;;
64244;SDS011;50584;29.058;-110.966;2023-01-16T15:41:45;14.10;;;3.97;;
64244;SDS011;50584;29.058;-110.966;2023-01-16T15:44:30;11.27;;;3.58;;
64244;SDS011;50584;29.058;-110.966;2023-01-16T15:52:50;10.05;;;3.53;;
64244;SDS011;50584;29.058;-110.966;2023-01-16T15:57:49;8.35;;;3.80;;
64244;SDS011;50584;29.058;-110.966;2023-01-16T16:00:24;9.20;;;3.38;;
64244;SDS011;50584;29.058;-110.966;2023-01-16T16:02:50;5.93;;;2.92;;
64244;SDS011;50584;29.058;-110.966;2023-01-16T16:05:16;14.63;;;3.28;;
64244;SDS011;50584;29.058;-110.966;2023-01-16T16:07:45;7.38;;;3.25;;
64244;SDS011;50584;29.058;-110.966;2023-01-16T16:10:12;8.70;;;2.60;;
64244;SDS011;50584;29.058;-110.966;2023-01-16T16:12:58;8.98;;;4.03;;
64244;SDS011;50584;29.058;-110.966;2023-01-16T16:15:24;7.68;;;2.70;;
64244;SDS011;50584;29.058;-110.966;2023-01-16T16:18:18;15.15;;;2.70;;
64244;SDS011;50584;29.058;-110.966;2023-01-16T16:20:49;6.70;;;2.25;;
64244;SDS011;50584;29.058;-110.966;2023-01-16T16:23:16;10.73;;;3.38;;
64244;SDS011;50584;29.058;-110.966;2023-01-16T16:25:47;12.77;;;2.88;;
64244;SDS011;50584;29.058;-110.966;2023-01-16T16:28:17;9.52;;;2.60;;
64244;SDS011;50584;29.058;-110.966;2023-01-16T16:30:43;5.47;;;3.13;;
64244;SDS011;50584;29.058;-110.966;2023-01-16T16:33:17;6.82;;;3.65;;
64244;SDS011;50584;29.058;-110.966;2023-01-16T16:35:46;12.82;;;2.58;;
64244;SDS011;50584;29.058;-110.966;2023-01-16T16:38:17;5.30;;;2.40;;
64244;SDS011;50584;29.058;-110.966;2023-01-16T16:40:44;5.28;;;2.55;;
64244;SDS011;50584;29.058;-110.966;2023-01-16T16:43:13;6.22;;;2.10;;
64244;SDS011;50584;29.058;-110.966;2023-01-16T16:45:39;10.10;;;2.72;;
64244;SDS011;50584;29.058;-110.966;2023-01-16T16:48:21;9.00;;;2.33;;
64244;SDS011;50584;29.058;-110.966;2023-01-16T16:50:48;6.13;;;2.60;;
64244;SDS011;50584;29.058;-110.966;2023-01-16T16:53:15;4.07;;;2.20;;
64244;SDS011;50584;29.058;-110.966;2023-01-16T16:55:48;13.60;;;2.38;;
64244;SDS011;50584;29.058;-110.966;2023-01-16T16:58:15;5.65;;;2.15;;
64244;SDS011;50584;29.058;-110.966;2023-01-16T17:00:42;6.68;;;2.30;;
64244;SDS011;50584;29.058;-110.966;2023-01-16T17:05:37;4.82;;;1.85;;
64244;SDS011;50584;29.058;-110.966;2023-01-16T17:08:03;5.25;;;2.33;;
64244;SDS011;50584;29.058;-110.966;2023-01-16T17:10:29;9.30;;;2.25;;
64244;SDS011;50584;29.058;-110.966;2023-01-16T17:12:55;9.65;;;2.13;;
64244;SDS011;50584;29.058;-110.966;2023-01-16T17:15:22;7.35;;;1.73;;
64244;SDS011;50584;29.058;-110.966;2023-01-16T17:17:48;4.47;;;1.80;;
64244;SDS011;50584;29.058;-110.966;2023-01-16T17:20:21;4.63;;;1.42;;